Terminal Aerodrome Forecast
Issued by NWS

Current Version | Previous Version | Text Only | Print | Product List | Glossary Off
Versions: 1 2 3 4 5 6 7 8 9 10 11 12 13 14 15 16 17 18 19 20 21 22 23 24 25 26 27 28 29 30

000
FTUS41 KPBZ 261100
TAFMGW
TAF
KMGW 261120Z 2612/2712 36005KT 6SM -SN OVC035
     FM261400 01005KT 1SM -SN BR OVC010
      TEMPO 2615/2618 1/2SM SN OVC004
     FM262100 VRB03KT 2SM -SN BR OVC010
     FM262300 VRB03KT 5SM BR OVC010=

USA.gov is the U.S. government's official web portal to all federal, state and local government web resources and services.